sensor_id;sensor_type;location;lat;lon;timestamp;P1;durP1;ratioP1;P2;durP2;ratioP2
18405;SDS011;9329;48.720;9.588;2022-12-07T00:01:47;12.60;;;9.10;;
18405;SDS011;9329;48.720;9.588;2022-12-07T00:04:14;12.10;;;8.77;;
18405;SDS011;9329;48.720;9.588;2022-12-07T00:06:43;12.05;;;8.48;;
18405;SDS011;9329;48.720;9.588;2022-12-07T00:09:11;10.82;;;8.23;;
18405;SDS011;9329;48.720;9.588;2022-12-07T00:11:39;12.55;;;8.77;;
18405;SDS011;9329;48.720;9.588;2022-12-07T00:14:10;12.07;;;8.50;;
18405;SDS011;9329;48.720;9.588;2022-12-07T00:16:39;11.30;;;8.30;;
18405;SDS011;9329;48.720;9.588;2022-12-07T00:19:06;10.13;;;8.10;;
18405;SDS011;9329;48.720;9.588;2022-12-07T00:21:34;12.10;;;9.03;;
18405;SDS011;9329;48.720;9.588;2022-12-07T00:24:02;12.38;;;8.65;;
18405;SDS011;9329;48.720;9.588;2022-12-07T00:26:31;13.13;;;9.30;;
18405;SDS011;9329;48.720;9.588;2022-12-07T00:29:02;12.38;;;9.32;;
18405;SDS011;9329;48.720;9.588;2022-12-07T00:31:32;12.45;;;9.27;;
18405;SDS011;9329;48.720;9.588;2022-12-07T00:34:03;14.23;;;9.70;;
18405;SDS011;9329;48.720;9.588;2022-12-07T00:36:31;13.63;;;10.10;;
18405;SDS011;9329;48.720;9.588;2022-12-07T00:38:58;14.10;;;10.77;;
18405;SDS011;9329;48.720;9.588;2022-12-07T00:41:27;14.60;;;10.65;;
18405;SDS011;9329;48.720;9.588;2022-12-07T00:43:55;13.18;;;9.95;;
18405;SDS011;9329;48.720;9.588;2022-12-07T00:46:22;13.95;;;10.10;;
18405;SDS011;9329;48.720;9.588;2022-12-07T00:48:52;12.57;;;9.73;;
18405;SDS011;9329;48.720;9.588;2022-12-07T00:51:21;12.38;;;9.52;;
18405;SDS011;9329;48.720;9.588;2022-12-07T00:53:49;15.02;;;10.73;;
18405;SDS011;9329;48.720;9.588;2022-12-07T00:56:18;14.50;;;10.60;;
18405;SDS011;9329;48.720;9.588;2022-12-07T00:58:49;13.57;;;9.98;;
18405;SDS011;9329;48.720;9.588;2022-12-07T01:01:17;13.65;;;9.75;;
18405;SDS011;9329;48.720;9.588;2022-12-07T01:03:44;13.82;;;10.70;;
18405;SDS011;9329;48.720;9.588;2022-12-07T01:06:15;12.82;;;9.52;;
18405;SDS011;9329;48.720;9.588;2022-12-07T01:08:43;12.35;;;9.43;;
18405;SDS011;9329;48.720;9.588;2022-12-07T01:11:11;12.05;;;9.40;;
18405;SDS011;9329;48.720;9.588;2022-12-07T01:13:40;11.50;;;9.50;;
18405;SDS011;9329;48.720;9.588;2022-12-07T01:16:09;12.05;;;9.80;;
18405;SDS011;9329;48.720;9.588;2022-12-07T01:18:37;13.45;;;10.30;;
18405;SDS011;9329;48.720;9.588;2022-12-07T01:21:06;12.50;;;9.65;;
18405;SDS011;9329;48.720;9.588;2022-12-07T01:23:37;14.43;;;10.52;;
18405;SDS011;9329;48.720;9.588;2022-12-07T01:26:05;13.48;;;10.23;;
18405;SDS011;9329;48.720;9.588;2022-12-07T01:28:36;13.32;;;10.43;;
18405;SDS011;9329;48.720;9.588;2022-12-07T01:31:04;13.90;;;11.30;;
18405;SDS011;9329;48.720;9.588;2022-12-07T01:33:33;14.10;;;10.82;;
18405;SDS011;9329;48.720;9.588;2022-12-07T01:36:02;15.77;;;11.63;;
18405;SDS011;9329;48.720;9.588;2022-12-07T01:38:29;14.50;;;10.98;;
18405;SDS011;9329;48.720;9.588;2022-12-07T01:40:59;14.73;;;11.15;;
18405;SDS011;9329;48.720;9.588;2022-12-07T01:43:28;16.40;;;11.65;;
18405;SDS011;9329;48.720;9.588;2022-12-07T01:45:56;14.97;;;11.67;;
18405;SDS011;9329;48.720;9.588;2022-12-07T01:48:24;14.70;;;11.32;;
18405;SDS011;9329;48.720;9.588;2022-12-07T01:50:53;14.77;;;11.37;;
18405;SDS011;9329;48.720;9.588;2022-12-07T01:53:26;14.77;;;11.60;;
18405;SDS011;9329;48.720;9.588;2022-12-07T01:55:56;14.90;;;11.63;;
18405;SDS011;9329;48.720;9.588;2022-12-07T01:58:25;16.23;;;11.85;;
18405;SDS011;9329;48.720;9.588;2022-12-07T02:00:52;15.18;;;10.98;;
18405;SDS011;9329;48.720;9.588;2022-12-07T02:03:20;14.48;;;11.88;;
18405;SDS011;9329;48.720;9.588;2022-12-07T02:05:51;15.60;;;11.50;;
18405;SDS011;9329;48.720;9.588;2022-12-07T02:08:20;13.65;;;10.98;;
18405;SDS011;9329;48.720;9.588;2022-12-07T02:10:47;12.93;;;10.35;;
18405;SDS011;9329;48.720;9.588;2022-12-07T02:13:16;14.32;;;10.85;;
18405;SDS011;9329;48.720;9.588;2022-12-07T02:15:53;12.93;;;10.65;;
18405;SDS011;9329;48.720;9.588;2022-12-07T02:18:34;13.23;;;10.67;;
18405;SDS011;9329;48.720;9.588;2022-12-07T02:21:11;13.13;;;10.63;;
18405;SDS011;9329;48.720;9.588;2022-12-07T02:23:51;13.35;;;10.73;;
18405;SDS011;9329;48.720;9.588;2022-12-07T02:29:49;17.02;;;11.68;;
18405;SDS011;9329;48.720;9.588;2022-12-07T02:32:24;14.88;;;11.30;;
18405;SDS011;9329;48.720;9.588;2022-12-07T02:34:56;15.13;;;11.40;;
18405;SDS011;9329;48.720;9.588;2022-12-07T02:37:30;14.07;;;11.05;;
18405;SDS011;9329;48.720;9.588;2022-12-07T02:40:05;14.27;;;11.05;;
18405;SDS011;9329;48.720;9.588;2022-12-07T02:42:36;14.05;;;10.45;;
18405;SDS011;9329;48.720;9.588;2022-12-07T02:45:09;12.85;;;10.27;;
18405;SDS011;9329;48.720;9.588;2022-12-07T02:47:38;15.43;;;11.82;;
18405;SDS011;9329;48.720;9.588;2022-12-07T02:50:07;15.32;;;11.40;;
18405;SDS011;9329;48.720;9.588;2022-12-07T02:52:35;13.85;;;11.02;;
18405;SDS011;9329;48.720;9.588;2022-12-07T02:55:02;14.10;;;11.10;;
18405;SDS011;9329;48.720;9.588;2022-12-07T02:57:35;14.55;;;11.10;;
18405;SDS011;9329;48.720;9.588;2022-12-07T03:00:14;14.85;;;11.18;;
18405;SDS011;9329;48.720;9.588;2022-12-07T03:02:47;16.63;;;12.07;;
18405;SDS011;9329;48.720;9.588;2022-12-07T03:08:21;14.65;;;11.48;;
18405;SDS011;9329;48.720;9.588;2022-12-07T03:10:56;14.88;;;11.40;;
18405;SDS011;9329;48.720;9.588;2022-12-07T03:13:25;15.05;;;11.10;;
18405;SDS011;9329;48.720;9.588;2022-12-07T03:16:00;14.05;;;10.90;;
18405;SDS011;9329;48.720;9.588;2022-12-07T03:18:32;15.70;;;11.77;;
18405;SDS011;9329;48.720;9.588;2022-12-07T03:21:05;16.08;;;11.75;;
18405;SDS011;9329;48.720;9.588;2022-12-07T03:23:36;16.10;;;11.70;;
18405;SDS011;9329;48.720;9.588;2022-12-07T03:26:06;15.77;;;11.75;;
18405;SDS011;9329;48.720;9.588;2022-12-07T03:28:36;16.02;;;12.20;;
18405;SDS011;9329;48.720;9.588;2022-12-07T03:31:11;15.35;;;11.48;;
18405;SDS011;9329;48.720;9.588;2022-12-07T03:33:44;15.07;;;11.15;;
18405;SDS011;9329;48.720;9.588;2022-12-07T03:36:17;15.20;;;11.50;;
18405;SDS011;9329;48.720;9.588;2022-12-07T03:38:50;16.80;;;12.40;;
18405;SDS011;9329;48.720;9.588;2022-12-07T03:41:23;16.35;;;12.45;;
18405;SDS011;9329;48.720;9.588;2022-12-07T03:43:52;17.53;;;12.77;;
18405;SDS011;9329;48.720;9.588;2022-12-07T03:46:25;15.37;;;12.17;;
18405;SDS011;9329;48.720;9.588;2022-12-07T03:48:59;17.23;;;12.57;;
18405;SDS011;9329;48.720;9.588;2022-12-07T03:51:34;15.63;;;12.20;;
18405;SDS011;9329;48.720;9.588;2022-12-07T03:54:08;17.58;;;13.25;;
18405;SDS011;9329;48.720;9.588;2022-12-07T03:56:42;19.60;;;14.07;;
18405;SDS011;9329;48.720;9.588;2022-12-07T03:59:10;21.27;;;14.43;;
18405;SDS011;9329;48.720;9.588;2022-12-07T04:01:42;21.38;;;14.57;;
18405;SDS011;9329;48.720;9.588;2022-12-07T04:04:09;20.50;;;14.13;;
18405;SDS011;9329;48.720;9.588;2022-12-07T04:06:37;17.50;;;12.70;;
18405;SDS011;9329;48.720;9.588;2022-12-07T04:09:04;17.77;;;12.50;;
18405;SDS011;9329;48.720;9.588;2022-12-07T04:11:31;19.65;;;13.40;;
18405;SDS011;9329;48.720;9.588;2022-12-07T04:13:57;18.50;;;13.18;;
18405;SDS011;9329;48.720;9.588;2022-12-07T04:16:44;19.47;;;13.47;;
18405;SDS011;9329;48.720;9.588;2022-12-07T04:19:11;19.13;;;13.35;;
18405;SDS011;9329;48.720;9.588;2022-12-07T04:21:38;18.88;;;13.25;;
18405;SDS011;9329;48.720;9.588;2022-12-07T04:24:05;18.65;;;13.32;;
18405;SDS011;9329;48.720;9.588;2022-12-07T04:26:32;20.02;;;13.77;;
18405;SDS011;9329;48.720;9.588;2022-12-07T04:28:59;18.05;;;12.95;;
18405;SDS011;9329;48.720;9.588;2022-12-07T04:31:26;19.52;;;13.90;;
18405;SDS011;9329;48.720;9.588;2022-12-07T04:33:54;18.80;;;13.70;;
18405;SDS011;9329;48.720;9.588;2022-12-07T04:36:22;20.42;;;14.48;;
18405;SDS011;9329;48.720;9.588;2022-12-07T04:38:48;20.67;;;13.68;;
18405;SDS011;9329;48.720;9.588;2022-12-07T04:41:15;19.67;;;14.10;;
18405;SDS011;9329;48.720;9.588;2022-12-07T04:43:42;19.52;;;13.65;;
18405;SDS011;9329;48.720;9.588;2022-12-07T04:46:09;20.27;;;13.90;;
18405;SDS011;9329;48.720;9.588;2022-12-07T04:48:36;21.40;;;14.17;;
18405;SDS011;9329;48.720;9.588;2022-12-07T04:51:05;19.65;;;13.63;;
18405;SDS011;9329;48.720;9.588;2022-12-07T04:53:32;20.33;;;14.25;;
18405;SDS011;9329;48.720;9.588;2022-12-07T04:55:59;20.60;;;14.07;;
18405;SDS011;9329;48.720;9.588;2022-12-07T04:58:26;21.05;;;14.45;;
18405;SDS011;9329;48.720;9.588;2022-12-07T05:00:53;25.52;;;17.10;;
18405;SDS011;9329;48.720;9.588;2022-12-07T05:03:21;24.03;;;16.97;;
18405;SDS011;9329;48.720;9.588;2022-12-07T05:05:48;25.50;;;17.63;;
18405;SDS011;9329;48.720;9.588;2022-12-07T05:08:16;26.95;;;18.08;;
18405;SDS011;9329;48.720;9.588;2022-12-07T05:10:43;27.00;;;18.20;;
18405;SDS011;9329;48.720;9.588;2022-12-07T05:13:10;26.08;;;17.90;;
18405;SDS011;9329;48.720;9.588;2022-12-07T05:15:37;24.00;;;16.48;;
18405;SDS011;9329;48.720;9.588;2022-12-07T05:18:04;24.10;;;16.10;;
18405;SDS011;9329;48.720;9.588;2022-12-07T05:20:31;28.00;;;16.35;;
18405;SDS011;9329;48.720;9.588;2022-12-07T05:22:58;24.80;;;17.05;;
18405;SDS011;9329;48.720;9.588;2022-12-07T05:25:26;22.50;;;16.07;;
18405;SDS011;9329;48.720;9.588;2022-12-07T05:27:54;25.42;;;16.75;;
18405;SDS011;9329;48.720;9.588;2022-12-07T05:30:22;27.17;;;17.55;;
18405;SDS011;9329;48.720;9.588;2022-12-07T05:32:50;26.07;;;17.27;;
18405;SDS011;9329;48.720;9.588;2022-12-07T05:35:17;25.70;;;17.00;;
18405;SDS011;9329;48.720;9.588;2022-12-07T05:37:45;26.67;;;17.83;;
18405;SDS011;9329;48.720;9.588;2022-12-07T05:40:12;24.73;;;16.63;;
18405;SDS011;9329;48.720;9.588;2022-12-07T05:42:41;25.92;;;16.92;;
18405;SDS011;9329;48.720;9.588;2022-12-07T05:45:09;23.30;;;16.20;;
18405;SDS011;9329;48.720;9.588;2022-12-07T05:47:36;22.30;;;16.08;;
18405;SDS011;9329;48.720;9.588;2022-12-07T05:50:05;23.45;;;15.50;;
18405;SDS011;9329;48.720;9.588;2022-12-07T05:52:33;23.20;;;15.82;;
18405;SDS011;9329;48.720;9.588;2022-12-07T05:55:00;23.58;;;15.95;;
18405;SDS011;9329;48.720;9.588;2022-12-07T05:57:27;23.35;;;15.70;;
18405;SDS011;9329;48.720;9.588;2022-12-07T05:59:55;22.83;;;15.07;;
18405;SDS011;9329;48.720;9.588;2022-12-07T06:02:21;22.95;;;14.82;;
18405;SDS011;9329;48.720;9.588;2022-12-07T06:04:48;21.83;;;15.48;;
18405;SDS011;9329;48.720;9.588;2022-12-07T06:07:15;22.65;;;15.50;;
18405;SDS011;9329;48.720;9.588;2022-12-07T06:09:43;23.02;;;14.57;;
18405;SDS011;9329;48.720;9.588;2022-12-07T06:12:10;23.92;;;15.35;;
18405;SDS011;9329;48.720;9.588;2022-12-07T06:14:56;23.35;;;16.20;;
18405;SDS011;9329;48.720;9.588;2022-12-07T06:17:24;22.45;;;15.52;;
18405;SDS011;9329;48.720;9.588;2022-12-07T06:19:51;21.65;;;15.07;;
18405;SDS011;9329;48.720;9.588;2022-12-07T06:22:18;21.92;;;15.00;;
18405;SDS011;9329;48.720;9.588;2022-12-07T06:24:45;23.13;;;15.00;;
18405;SDS011;9329;48.720;9.588;2022-12-07T06:27:12;22.00;;;15.13;;
18405;SDS011;9329;48.720;9.588;2022-12-07T06:29:39;32.80;;;20.30;;
18405;SDS011;9329;48.720;9.588;2022-12-07T06:32:08;24.57;;;16.60;;
18405;SDS011;9329;48.720;9.588;2022-12-07T06:34:35;24.30;;;14.82;;
18405;SDS011;9329;48.720;9.588;2022-12-07T06:37:02;20.58;;;14.18;;
18405;SDS011;9329;48.720;9.588;2022-12-07T06:39:29;22.58;;;14.52;;
18405;SDS011;9329;48.720;9.588;2022-12-07T06:41:56;19.80;;;13.73;;
18405;SDS011;9329;48.720;9.588;2022-12-07T06:44:24;21.95;;;15.00;;
18405;SDS011;9329;48.720;9.588;2022-12-07T06:46:51;21.00;;;14.85;;
18405;SDS011;9329;48.720;9.588;2022-12-07T06:49:20;23.02;;;15.80;;
18405;SDS011;9329;48.720;9.588;2022-12-07T06:51:47;23.58;;;16.17;;
18405;SDS011;9329;48.720;9.588;2022-12-07T06:54:14;26.55;;;16.55;;
18405;SDS011;9329;48.720;9.588;2022-12-07T06:56:42;25.27;;;16.77;;
18405;SDS011;9329;48.720;9.588;2022-12-07T06:59:09;29.20;;;19.48;;
18405;SDS011;9329;48.720;9.588;2022-12-07T07:01:36;37.15;;;25.73;;
18405;SDS011;9329;48.720;9.588;2022-12-07T07:04:06;36.85;;;22.83;;
18405;SDS011;9329;48.720;9.588;2022-12-07T07:06:34;30.15;;;18.70;;
18405;SDS011;9329;48.720;9.588;2022-12-07T07:09:07;24.67;;;16.92;;
18405;SDS011;9329;48.720;9.588;2022-12-07T07:11:34;22.77;;;15.68;;
18405;SDS011;9329;48.720;9.588;2022-12-07T07:14:01;27.77;;;17.42;;
18405;SDS011;9329;48.720;9.588;2022-12-07T07:16:28;26.52;;;16.67;;
18405;SDS011;9329;48.720;9.588;2022-12-07T07:18:56;24.88;;;16.10;;
18405;SDS011;9329;48.720;9.588;2022-12-07T07:21:23;23.15;;;15.70;;
18405;SDS011;9329;48.720;9.588;2022-12-07T07:23:52;29.02;;;17.98;;
18405;SDS011;9329;48.720;9.588;2022-12-07T07:26:18;27.15;;;17.15;;
18405;SDS011;9329;48.720;9.588;2022-12-07T07:28:45;27.02;;;18.48;;
18405;SDS011;9329;48.720;9.588;2022-12-07T07:31:12;26.10;;;18.48;;
18405;SDS011;9329;48.720;9.588;2022-12-07T07:33:40;23.42;;;16.05;;
18405;SDS011;9329;48.720;9.588;2022-12-07T07:36:07;22.23;;;15.20;;
18405;SDS011;9329;48.720;9.588;2022-12-07T07:38:34;23.57;;;15.27;;
18405;SDS011;9329;48.720;9.588;2022-12-07T07:41:02;23.42;;;15.25;;
18405;SDS011;9329;48.720;9.588;2022-12-07T07:43:29;24.20;;;16.08;;
18405;SDS011;9329;48.720;9.588;2022-12-07T07:45:56;24.52;;;16.77;;
18405;SDS011;9329;48.720;9.588;2022-12-07T07:48:23;23.27;;;15.57;;
18405;SDS011;9329;48.720;9.588;2022-12-07T07:50:50;23.25;;;15.65;;
18405;SDS011;9329;48.720;9.588;2022-12-07T07:53:18;22.20;;;15.57;;
18405;SDS011;9329;48.720;9.588;2022-12-07T07:55:50;22.58;;;15.68;;
18405;SDS011;9329;48.720;9.588;2022-12-07T07:58:19;21.40;;;14.67;;
18405;SDS011;9329;48.720;9.588;2022-12-07T08:00:47;22.27;;;14.83;;
18405;SDS011;9329;48.720;9.588;2022-12-07T08:03:14;21.02;;;15.30;;
18405;SDS011;9329;48.720;9.588;2022-12-07T08:05:41;23.48;;;14.68;;
18405;SDS011;9329;48.720;9.588;2022-12-07T08:08:08;24.70;;;14.77;;
18405;SDS011;9329;48.720;9.588;2022-12-07T08:10:35;20.98;;;15.50;;
18405;SDS011;9329;48.720;9.588;2022-12-07T08:13:02;24.25;;;16.17;;
18405;SDS011;9329;48.720;9.588;2022-12-07T08:15:40;21.13;;;14.98;;
18405;SDS011;9329;48.720;9.588;2022-12-07T08:18:09;20.90;;;14.85;;
18405;SDS011;9329;48.720;9.588;2022-12-07T08:20:37;23.92;;;15.40;;
18405;SDS011;9329;48.720;9.588;2022-12-07T08:23:05;24.58;;;16.63;;
18405;SDS011;9329;48.720;9.588;2022-12-07T08:25:33;23.95;;;16.85;;
18405;SDS011;9329;48.720;9.588;2022-12-07T08:28:01;23.17;;;15.70;;
18405;SDS011;9329;48.720;9.588;2022-12-07T08:30:28;20.67;;;13.98;;
18405;SDS011;9329;48.720;9.588;2022-12-07T08:32:57;19.95;;;13.68;;
18405;SDS011;9329;48.720;9.588;2022-12-07T08:35:24;19.92;;;13.93;;
18405;SDS011;9329;48.720;9.588;2022-12-07T08:37:52;20.03;;;14.37;;
18405;SDS011;9329;48.720;9.588;2022-12-07T08:40:19;20.13;;;13.70;;
18405;SDS011;9329;48.720;9.588;2022-12-07T08:42:48;18.45;;;13.70;;
18405;SDS011;9329;48.720;9.588;2022-12-07T08:45:16;21.42;;;14.52;;
18405;SDS011;9329;48.720;9.588;2022-12-07T08:47:44;19.98;;;14.02;;
18405;SDS011;9329;48.720;9.588;2022-12-07T08:50:17;19.08;;;13.80;;
18405;SDS011;9329;48.720;9.588;2022-12-07T08:52:44;21.42;;;14.30;;
18405;SDS011;9329;48.720;9.588;2022-12-07T08:55:16;19.48;;;13.73;;
18405;SDS011;9329;48.720;9.588;2022-12-07T08:57:44;20.87;;;14.10;;
18405;SDS011;9329;48.720;9.588;2022-12-07T09:00:11;18.70;;;13.35;;
18405;SDS011;9329;48.720;9.588;2022-12-07T09:02:39;19.77;;;13.27;;
18405;SDS011;9329;48.720;9.588;2022-12-07T09:05:07;18.85;;;12.77;;
18405;SDS011;9329;48.720;9.588;2022-12-07T09:07:36;21.73;;;13.40;;
18405;SDS011;9329;48.720;9.588;2022-12-07T09:10:05;20.02;;;13.13;;
18405;SDS011;9329;48.720;9.588;2022-12-07T09:12:33;17.80;;;12.67;;
18405;SDS011;9329;48.720;9.588;2022-12-07T09:15:01;18.30;;;12.73;;
18405;SDS011;9329;48.720;9.588;2022-12-07T09:17:31;19.08;;;12.18;;
18405;SDS011;9329;48.720;9.588;2022-12-07T09:19:58;17.02;;;11.77;;
18405;SDS011;9329;48.720;9.588;2022-12-07T09:22:28;17.58;;;11.30;;
18405;SDS011;9329;48.720;9.588;2022-12-07T09:24:57;17.67;;;11.95;;
18405;SDS011;9329;48.720;9.588;2022-12-07T09:27:24;15.27;;;11.18;;
18405;SDS011;9329;48.720;9.588;2022-12-07T09:29:51;15.68;;;11.18;;
18405;SDS011;9329;48.720;9.588;2022-12-07T09:32:18;15.55;;;10.65;;
18405;SDS011;9329;48.720;9.588;2022-12-07T09:34:45;13.95;;;9.40;;
18405;SDS011;9329;48.720;9.588;2022-12-07T09:37:12;13.00;;;9.77;;
18405;SDS011;9329;48.720;9.588;2022-12-07T09:39:39;12.65;;;9.30;;
18405;SDS011;9329;48.720;9.588;2022-12-07T09:42:10;12.52;;;9.07;;
18405;SDS011;9329;48.720;9.588;2022-12-07T09:44:52;12.85;;;9.73;;
18405;SDS011;9329;48.720;9.588;2022-12-07T09:47:19;16.67;;;9.25;;
18405;SDS011;9329;48.720;9.588;2022-12-07T09:49:47;12.77;;;8.80;;
18405;SDS011;9329;48.720;9.588;2022-12-07T09:52:19;14.30;;;9.50;;
18405;SDS011;9329;48.720;9.588;2022-12-07T09:54:51;12.98;;;9.60;;
18405;SDS011;9329;48.720;9.588;2022-12-07T09:57:23;14.02;;;10.23;;
18405;SDS011;9329;48.720;9.588;2022-12-07T09:59:55;12.93;;;9.85;;
18405;SDS011;9329;48.720;9.588;2022-12-07T10:02:29;15.30;;;9.70;;
18405;SDS011;9329;48.720;9.588;2022-12-07T10:05:02;12.55;;;9.38;;
18405;SDS011;9329;48.720;9.588;2022-12-07T10:07:31;11.48;;;8.75;;
18405;SDS011;9329;48.720;9.588;2022-12-07T10:09:58;13.27;;;8.80;;
18405;SDS011;9329;48.720;9.588;2022-12-07T10:12:26;12.95;;;9.32;;
18405;SDS011;9329;48.720;9.588;2022-12-07T10:14:54;12.95;;;8.25;;
18405;SDS011;9329;48.720;9.588;2022-12-07T10:17:32;12.05;;;8.88;;
18405;SDS011;9329;48.720;9.588;2022-12-07T10:20:15;10.55;;;7.90;;
18405;SDS011;9329;48.720;9.588;2022-12-07T10:22:54;10.55;;;7.75;;
18405;SDS011;9329;48.720;9.588;2022-12-07T10:25:32;11.15;;;7.38;;
18405;SDS011;9329;48.720;9.588;2022-12-07T10:28:08;12.50;;;8.30;;
18405;SDS011;9329;48.720;9.588;2022-12-07T10:30:50;12.53;;;8.13;;
18405;SDS011;9329;48.720;9.588;2022-12-07T10:33:32;10.00;;;7.53;;
18405;SDS011;9329;48.720;9.588;2022-12-07T10:36:01;10.30;;;7.43;;
18405;SDS011;9329;48.720;9.588;2022-12-07T10:38:44;11.52;;;7.88;;
18405;SDS011;9329;48.720;9.588;2022-12-07T10:41:12;11.00;;;8.40;;
18405;SDS011;9329;48.720;9.588;2022-12-07T10:43:47;11.18;;;7.70;;
18405;SDS011;9329;48.720;9.588;2022-12-07T10:46:43;12.07;;;7.87;;
18405;SDS011;9329;48.720;9.588;2022-12-07T10:49:43;11.17;;;7.80;;
18405;SDS011;9329;48.720;9.588;2022-12-07T10:52:50;12.48;;;9.50;;
18405;SDS011;9329;48.720;9.588;2022-12-07T10:55:34;11.40;;;8.30;;
18405;SDS011;9329;48.720;9.588;2022-12-07T10:58:16;10.80;;;8.13;;
18405;SDS011;9329;48.720;9.588;2022-12-07T11:01:01;10.93;;;7.50;;
18405;SDS011;9329;48.720;9.588;2022-12-07T11:06:50;9.70;;;7.43;;
18405;SDS011;9329;48.720;9.588;2022-12-07T11:09:34;12.00;;;7.05;;
18405;SDS011;9329;48.720;9.588;2022-12-07T11:12:25;13.20;;;7.10;;
18405;SDS011;9329;48.720;9.588;2022-12-07T11:15:01;8.38;;;6.80;;
18405;SDS011;9329;48.720;9.588;2022-12-07T11:17:36;11.32;;;7.15;;
18405;SDS011;9329;48.720;9.588;2022-12-07T11:20:14;9.70;;;7.50;;
18405;SDS011;9329;48.720;9.588;2022-12-07T11:22:55;10.85;;;7.72;;
18405;SDS011;9329;48.720;9.588;2022-12-07T11:25:32;9.70;;;7.18;;
18405;SDS011;9329;48.720;9.588;2022-12-07T11:28:11;10.65;;;7.95;;
18405;SDS011;9329;48.720;9.588;2022-12-07T11:30:49;9.40;;;6.90;;
18405;SDS011;9329;48.720;9.588;2022-12-07T11:33:26;10.07;;;7.70;;
18405;SDS011;9329;48.720;9.588;2022-12-07T11:36:02;11.00;;;7.38;;
18405;SDS011;9329;48.720;9.588;2022-12-07T11:38:41;9.80;;;7.43;;
18405;SDS011;9329;48.720;9.588;2022-12-07T11:41:12;11.48;;;7.78;;
18405;SDS011;9329;48.720;9.588;2022-12-07T11:43:52;11.95;;;8.07;;
18405;SDS011;9329;48.720;9.588;2022-12-07T11:46:24;10.95;;;8.20;;
18405;SDS011;9329;48.720;9.588;2022-12-07T11:48:57;9.98;;;7.30;;
18405;SDS011;9329;48.720;9.588;2022-12-07T11:51:30;11.18;;;7.78;;
18405;SDS011;9329;48.720;9.588;2022-12-07T11:54:01;10.38;;;7.95;;
18405;SDS011;9329;48.720;9.588;2022-12-07T11:56:31;11.02;;;7.88;;
18405;SDS011;9329;48.720;9.588;2022-12-07T11:59:04;11.07;;;8.30;;
18405;SDS011;9329;48.720;9.588;2022-12-07T12:01:44;11.57;;;7.65;;
18405;SDS011;9329;48.720;9.588;2022-12-07T12:04:29;10.68;;;8.00;;
18405;SDS011;9329;48.720;9.588;2022-12-07T12:07:00;12.68;;;7.57;;
18405;SDS011;9329;48.720;9.588;2022-12-07T12:09:30;10.60;;;7.37;;
18405;SDS011;9329;48.720;9.588;2022-12-07T12:12:10;11.27;;;7.68;;
18405;SDS011;9329;48.720;9.588;2022-12-07T12:15:11;11.27;;;7.87;;
18405;SDS011;9329;48.720;9.588;2022-12-07T12:20:48;10.23;;;7.43;;
18405;SDS011;9329;48.720;9.588;2022-12-07T12:23:19;12.30;;;7.78;;
18405;SDS011;9329;48.720;9.588;2022-12-07T12:25:49;12.32;;;8.13;;
18405;SDS011;9329;48.720;9.588;2022-12-07T12:28:20;10.35;;;8.00;;
18405;SDS011;9329;48.720;9.588;2022-12-07T12:31:11;11.98;;;7.28;;
18405;SDS011;9329;48.720;9.588;2022-12-07T12:33:43;10.30;;;7.15;;
18405;SDS011;9329;48.720;9.588;2022-12-07T12:36:21;10.70;;;7.47;;
18405;SDS011;9329;48.720;9.588;2022-12-07T12:38:52;11.27;;;7.43;;
18405;SDS011;9329;48.720;9.588;2022-12-07T12:41:50;10.50;;;7.38;;
18405;SDS011;9329;48.720;9.588;2022-12-07T12:50:58;10.95;;;7.53;;
18405;SDS011;9329;48.720;9.588;2022-12-07T12:54:03;10.60;;;7.13;;
18405;SDS011;9329;48.720;9.588;2022-12-07T12:56:36;9.30;;;7.00;;
18405;SDS011;9329;48.720;9.588;2022-12-07T12:59:25;11.48;;;6.90;;
18405;SDS011;9329;48.720;9.588;2022-12-07T13:01:56;11.25;;;7.28;;
18405;SDS011;9329;48.720;9.588;2022-12-07T13:04:39;12.00;;;7.30;;
18405;SDS011;9329;48.720;9.588;2022-12-07T13:10:41;11.27;;;7.78;;
18405;SDS011;9329;48.720;9.588;2022-12-07T13:13:29;13.67;;;7.33;;
18405;SDS011;9329;48.720;9.588;2022-12-07T13:22:35;11.15;;;7.82;;
18405;SDS011;9329;48.720;9.588;2022-12-07T13:25:09;10.87;;;7.27;;
18405;SDS011;9329;48.720;9.588;2022-12-07T13:27:40;11.27;;;7.60;;
18405;SDS011;9329;48.720;9.588;2022-12-07T13:30:14;11.77;;;8.00;;
18405;SDS011;9329;48.720;9.588;2022-12-07T13:32:49;11.60;;;7.85;;
18405;SDS011;9329;48.720;9.588;2022-12-07T13:35:32;12.25;;;8.10;;
18405;SDS011;9329;48.720;9.588;2022-12-07T13:38:03;13.35;;;8.18;;
18405;SDS011;9329;48.720;9.588;2022-12-07T13:40:32;11.57;;;8.00;;
18405;SDS011;9329;48.720;9.588;2022-12-07T13:43:02;11.90;;;8.02;;
18405;SDS011;9329;48.720;9.588;2022-12-07T13:45:31;13.98;;;8.27;;
18405;SDS011;9329;48.720;9.588;2022-12-07T13:48:16;12.05;;;7.78;;
18405;SDS011;9329;48.720;9.588;2022-12-07T13:50:52;11.52;;;7.60;;
18405;SDS011;9329;48.720;9.588;2022-12-07T13:53:21;10.50;;;7.70;;
18405;SDS011;9329;48.720;9.588;2022-12-07T13:55:49;11.35;;;7.68;;
18405;SDS011;9329;48.720;9.588;2022-12-07T13:58:18;9.68;;;7.50;;
18405;SDS011;9329;48.720;9.588;2022-12-07T14:00:45;11.38;;;7.63;;
18405;SDS011;9329;48.720;9.588;2022-12-07T14:03:24;10.35;;;7.22;;
18405;SDS011;9329;48.720;9.588;2022-12-07T14:06:04;13.40;;;8.57;;
18405;SDS011;9329;48.720;9.588;2022-12-07T14:08:43;11.02;;;7.35;;
18405;SDS011;9329;48.720;9.588;2022-12-07T14:11:13;13.30;;;7.72;;
18405;SDS011;9329;48.720;9.588;2022-12-07T14:13:57;10.77;;;6.78;;
18405;SDS011;9329;48.720;9.588;2022-12-07T14:16:27;10.60;;;7.78;;
18405;SDS011;9329;48.720;9.588;2022-12-07T14:18:55;9.85;;;7.80;;
18405;SDS011;9329;48.720;9.588;2022-12-07T14:21:25;13.02;;;8.02;;
18405;SDS011;9329;48.720;9.588;2022-12-07T14:24:08;10.13;;;7.40;;
18405;SDS011;9329;48.720;9.588;2022-12-07T14:26:37;11.15;;;7.80;;
18405;SDS011;9329;48.720;9.588;2022-12-07T14:32:15;9.98;;;7.22;;
18405;SDS011;9329;48.720;9.588;2022-12-07T14:34:54;9.63;;;7.45;;
18405;SDS011;9329;48.720;9.588;2022-12-07T14:37:22;9.93;;;7.25;;
18405;SDS011;9329;48.720;9.588;2022-12-07T14:39:49;12.63;;;7.50;;
18405;SDS011;9329;48.720;9.588;2022-12-07T14:42:16;11.90;;;8.30;;
18405;SDS011;9329;48.720;9.588;2022-12-07T14:44:45;11.18;;;8.23;;
18405;SDS011;9329;48.720;9.588;2022-12-07T14:47:12;11.95;;;8.43;;
18405;SDS011;9329;48.720;9.588;2022-12-07T14:49:39;11.90;;;8.57;;
18405;SDS011;9329;48.720;9.588;2022-12-07T14:52:09;14.25;;;9.20;;
18405;SDS011;9329;48.720;9.588;2022-12-07T14:54:40;12.75;;;9.82;;
18405;SDS011;9329;48.720;9.588;2022-12-07T14:57:09;14.48;;;9.98;;
18405;SDS011;9329;48.720;9.588;2022-12-07T14:59:36;16.35;;;11.40;;
18405;SDS011;9329;48.720;9.588;2022-12-07T15:02:05;16.03;;;11.43;;
18405;SDS011;9329;48.720;9.588;2022-12-07T15:04:33;14.15;;;10.25;;
18405;SDS011;9329;48.720;9.588;2022-12-07T15:07:01;16.53;;;11.17;;
18405;SDS011;9329;48.720;9.588;2022-12-07T15:09:29;14.25;;;9.98;;
18405;SDS011;9329;48.720;9.588;2022-12-07T15:11:56;16.13;;;9.88;;
18405;SDS011;9329;48.720;9.588;2022-12-07T15:14:23;15.43;;;9.98;;
18405;SDS011;9329;48.720;9.588;2022-12-07T15:16:50;20.77;;;15.10;;
18405;SDS011;9329;48.720;9.588;2022-12-07T15:19:19;25.63;;;18.27;;
18405;SDS011;9329;48.720;9.588;2022-12-07T15:21:50;16.65;;;11.25;;
18405;SDS011;9329;48.720;9.588;2022-12-07T15:24:18;27.05;;;18.13;;
18405;SDS011;9329;48.720;9.588;2022-12-07T15:26:46;29.80;;;17.15;;
18405;SDS011;9329;48.720;9.588;2022-12-07T15:29:14;22.15;;;14.68;;
18405;SDS011;9329;48.720;9.588;2022-12-07T15:31:42;18.05;;;12.30;;
18405;SDS011;9329;48.720;9.588;2022-12-07T15:34:09;16.98;;;12.25;;
18405;SDS011;9329;48.720;9.588;2022-12-07T15:36:37;14.90;;;10.02;;